Markleton, Pennsylvania
Current Conditions -  °F | °C
As of 8:00 PM on Saturday 22 Nov 2014 (Local Time) from K2G4 Reporting Station
Scattered Clouds Scattered Clouds  
Wind Chill: 37°   Ceiling: Unl
Heat Index: 43°   Visibility: 10mi
Dew Point: 27°   Wind: 10mph
Humidity: 53%   Direction: 200°SSW
Pressure: 30.15"   Gusts: NA
Location:  39.86°N, 79.23°W
Report Text: K2G4 230100Z AUTO 20009KT 10SM SCT090 06/M03 A3015 RMK AO1
Loading
Personal Weather Stations






























Interactive Weather Map New forecast layout! Learn more

10-Day Weather Forecast

Advertisements
Track Severe Weather on mobile